ARN weather

Stockholm-Arlanda Airport
Stockholm, Stockholms län, Sweden

Public forecast

Using degrees Celsius for public forecast. Weather courtesy of forecast.io.

Current aviation weather report (METAR) for Stockholm-Arlanda Airport

Retrieved 2019/11/21 04:20 UTC (14 minutes ago):

ESSA 210420Z 11011KT 8000 OVC006 06/05 Q1026 R01L/19//95 R08/19//95 R01R/19//95 NOSIG

Aviation forecast (TAF) for Stockholm-Arlanda Airport

Retrieved 2019-11-21 00:33 UTC (4 hours ago):

TAF ESSA 202330Z 2100/2124 10009KT 8000 BKN015 TEMPO 2100/2106 4000 BR BKN006 PROB40 2106/2124 BKN010